createdAt,value
2022-08-20T00:01:01.793Z,19.85
2022-08-20T00:03:33.037Z,19.77
2022-08-20T00:06:04.114Z,19.77
2022-08-20T00:08:31.125Z,19.77
2022-08-20T00:10:59.049Z,19.77
2022-08-20T00:13:37.372Z,19.79
2022-08-20T00:16:05.763Z,19.86
2022-08-20T00:18:32.938Z,19.89
2022-08-20T00:21:01.064Z,19.84
2022-08-20T00:23:27.642Z,19.84
2022-08-20T00:25:54.333Z,19.82
2022-08-20T00:28:21.261Z,19.78
2022-08-20T00:30:48.686Z,19.78
2022-08-20T00:33:20.332Z,19.74
2022-08-20T00:35:50.308Z,19.78
2022-08-20T00:38:16.842Z,19.76
2022-08-20T00:40:50.282Z,19.79
2022-08-20T00:43:36.942Z,19.79
2022-08-20T00:46:11.520Z,19.75
2022-08-20T00:48:42.192Z,19.72
2022-08-20T00:51:15.141Z,19.71
2022-08-20T00:53:42.054Z,19.72
2022-08-20T00:56:11.263Z,19.75
2022-08-20T00:58:39.949Z,19.78
2022-08-20T01:01:08.368Z,19.79
2022-08-20T01:03:34.994Z,19.82
2022-08-20T01:06:01.536Z,19.85
2022-08-20T01:08:28.219Z,19.87
2022-08-20T01:11:10.287Z,19.83
2022-08-20T01:13:38.781Z,19.86
2022-08-20T01:16:14.637Z,19.89
2022-08-20T01:18:46.362Z,19.88
2022-08-20T01:21:13.380Z,19.83
2022-08-20T01:23:51.591Z,19.84
2022-08-20T01:26:25.577Z,19.85
2022-08-20T01:29:01.993Z,19.87
2022-08-20T01:31:31.994Z,19.82
2022-08-20T01:34:01.397Z,19.83
2022-08-20T01:36:34.447Z,19.83
2022-08-20T01:39:01.458Z,19.84
2022-08-20T01:41:30.645Z,19.86
2022-08-20T01:43:58.706Z,19.87
2022-08-20T01:46:33.003Z,19.89
2022-08-20T01:49:30.915Z,19.83
2022-08-20T01:52:01.108Z,19.80
2022-08-20T01:54:28.107Z,19.75
2022-08-20T01:57:06.957Z,19.68
2022-08-20T01:59:33.463Z,19.64
2022-08-20T02:02:02.619Z,19.62
2022-08-20T02:04:29.216Z,19.59
2022-08-20T02:06:58.861Z,19.52
2022-08-20T02:09:28.207Z,19.52
2022-08-20T02:11:54.962Z,19.59
2022-08-20T02:14:21.553Z,19.60
2022-08-20T02:16:55.081Z,19.59
2022-08-20T02:19:35.462Z,19.56
2022-08-20T02:22:08.877Z,19.55
2022-08-20T02:24:35.471Z,19.58
2022-08-20T02:27:01.968Z,19.58
2022-08-20T02:29:28.621Z,19.57
2022-08-20T02:32:25.098Z,19.59
2022-08-20T02:34:41.697Z,19.63
2022-08-20T02:37:08.444Z,19.58
2022-08-20T02:39:35.319Z,19.51
2022-08-20T02:42:05.203Z,19.54
2022-08-20T02:44:32.255Z,19.55
2022-08-20T02:46:58.963Z,19.57
2022-08-20T02:49:25.501Z,19.58
2022-08-20T02:51:52.089Z,19.59
2022-08-20T02:54:18.949Z,19.53
2022-08-20T02:56:45.561Z,19.55
2022-08-20T02:59:19.019Z,19.56
2022-08-20T03:01:48.442Z,19.56
2022-08-20T03:04:27.422Z,19.55
2022-08-20T03:06:54.009Z,19.48
2022-08-20T03:09:20.536Z,19.45
2022-08-20T03:11:47.017Z,19.44
2022-08-20T03:14:13.574Z,19.41
2022-08-20T03:16:40.102Z,19.34
2022-08-20T03:19:06.578Z,19.32
2022-08-20T03:21:33.064Z,19.29
2022-08-20T03:23:59.652Z,19.28
2022-08-20T03:26:26.324Z,19.30
2022-08-20T03:28:52.793Z,19.29
2022-08-20T03:31:19.295Z,19.30
2022-08-20T03:33:52.834Z,19.39
2022-08-20T03:36:22.226Z,19.40
2022-08-20T03:38:56.246Z,19.45
2022-08-20T03:41:23.842Z,19.42
2022-08-20T03:43:50.952Z,19.33
2022-08-20T03:46:22.921Z,19.24
2022-08-20T03:48:49.916Z,19.27
2022-08-20T03:51:22.787Z,19.24
2022-08-20T03:53:49.316Z,19.25
2022-08-20T03:56:17.359Z,19.25
2022-08-20T03:58:43.918Z,19.24
2022-08-20T04:01:32.096Z,19.25
2022-08-20T04:03:58.831Z,19.19
2022-08-20T04:06:26.507Z,19.16
2022-08-20T04:08:53.836Z,19.16
2022-08-20T04:11:20.278Z,19.16
2022-08-20T04:13:46.840Z,19.16
2022-08-20T04:16:16.152Z,19.08
2022-08-20T04:19:01.877Z,19.04
2022-08-20T04:21:30.977Z,19.08
2022-08-20T04:23:59.621Z,19.06
2022-08-20T04:26:26.143Z,19.08
2022-08-20T04:28:53.034Z,19.08
2022-08-20T04:31:24.876Z,19.01
2022-08-20T04:33:51.744Z,18.99
2022-08-20T04:36:18.247Z,18.99
2022-08-20T04:38:47.916Z,18.97
2022-08-20T04:41:23.663Z,18.95
2022-08-20T04:43:55.867Z,18.93
2022-08-20T04:46:25.809Z,18.98
2022-08-20T04:48:52.811Z,18.94
2022-08-20T04:51:22.883Z,18.90
2022-08-20T04:53:53.336Z,18.87
2022-08-20T04:56:23.860Z,18.82
2022-08-20T04:58:51.264Z,18.77
2022-08-20T05:01:18.460Z,18.74
2022-08-20T05:03:47.529Z,18.75
2022-08-20T05:06:14.043Z,18.70
2022-08-20T05:08:40.773Z,18.69
2022-08-20T05:11:34.637Z,18.59
2022-08-20T05:13:55.962Z,18.50
2022-08-20T05:16:23.646Z,18.33
2022-08-20T05:18:52.411Z,18.28
2022-08-20T05:21:21.173Z,18.27
2022-08-20T05:23:49.368Z,18.20
2022-08-20T05:26:16.758Z,18.06
2022-08-20T05:28:51.350Z,18.12
2022-08-20T05:31:32.115Z,18.15
2022-08-20T05:34:03.997Z,18.19
2022-08-20T05:36:30.578Z,18.24
2022-08-20T05:38:57.490Z,18.30
2022-08-20T05:41:27.522Z,18.38
2022-08-20T05:44:01.298Z,18.42
2022-08-20T05:46:31.060Z,18.40
2022-08-20T05:48:59.394Z,18.40
2022-08-20T05:51:26.691Z,18.36
2022-08-20T05:53:53.170Z,18.34
2022-08-20T05:56:19.716Z,18.41
2022-08-20T05:58:53.323Z,18.46
2022-08-20T06:01:19.884Z,18.44
2022-08-20T06:04:05.097Z,18.53
2022-08-20T06:06:45.173Z,18.59
2022-08-20T06:09:13.694Z,18.59
2022-08-20T06:11:40.198Z,18.65
2022-08-20T06:14:06.641Z,18.73
2022-08-20T06:16:33.273Z,18.74
2022-08-20T06:19:02.112Z,18.81
2022-08-20T06:21:29.618Z,18.89
2022-08-20T06:23:58.358Z,18.97
2022-08-20T06:26:29.889Z,18.99
2022-08-20T06:29:00.814Z,19.05
2022-08-20T06:31:27.820Z,19.17
2022-08-20T06:33:54.639Z,19.27
2022-08-20T06:36:21.531Z,19.32
2022-08-20T06:38:48.126Z,19.36
2022-08-20T06:41:14.708Z,19.33
2022-08-20T06:43:41.247Z,19.35
2022-08-20T06:46:08.193Z,19.34
2022-08-20T06:48:34.941Z,19.25
2022-08-20T06:51:01.705Z,19.24
2022-08-20T06:53:29.166Z,19.34
2022-08-20T06:55:58.823Z,19.50
2022-08-20T06:58:36.627Z,19.62
2022-08-20T07:01:09.519Z,19.72
2022-08-20T07:03:38.290Z,19.86
2022-08-20T07:06:06.059Z,19.94
2022-08-20T07:08:32.673Z,19.94
2022-08-20T07:10:59.709Z,19.81
2022-08-20T07:13:26.318Z,19.85
2022-08-20T07:15:54.105Z,19.86
2022-08-20T07:18:28.059Z,19.93
2022-08-20T07:20:57.124Z,20.05
2022-08-20T07:23:27.092Z,20.00
2022-08-20T07:25:55.521Z,20.11
2022-08-20T07:28:23.620Z,20.20
2022-08-20T07:31:13.180Z,20.19
2022-08-20T07:33:41.317Z,20.28
2022-08-20T07:36:09.025Z,20.38
2022-08-20T07:38:36.535Z,20.57
2022-08-20T07:41:06.407Z,20.59
2022-08-20T07:43:33.778Z,20.66
2022-08-20T07:46:02.801Z,20.75
2022-08-20T07:48:31.913Z,20.83
2022-08-20T07:51:01.361Z,20.82
2022-08-20T07:53:31.160Z,20.71
2022-08-20T07:56:01.323Z,20.77
2022-08-20T07:58:33.645Z,20.94
2022-08-20T08:01:00.614Z,21.08
2022-08-20T08:03:39.669Z,21.10
2022-08-20T08:06:28.305Z,21.19
2022-08-20T08:08:58.175Z,21.21
2022-08-20T08:11:24.702Z,21.33
2022-08-20T08:13:51.702Z,21.34
2022-08-20T08:16:19.073Z,21.28
2022-08-20T08:18:50.066Z,21.38
2022-08-20T08:21:17.763Z,21.47
2022-08-20T08:23:44.805Z,21.55
2022-08-20T08:26:17.853Z,21.43
2022-08-20T08:28:46.415Z,21.67
2022-08-20T08:31:13.084Z,21.88
2022-08-20T08:33:40.843Z,21.88
2022-08-20T08:36:13.222Z,21.80
2022-08-20T08:38:42.259Z,21.84
2022-08-20T08:41:15.827Z,21.93
2022-08-20T08:43:46.783Z,22.08
2022-08-20T08:46:18.067Z,22.21
2022-08-20T08:48:47.917Z,22.36
2022-08-20T08:51:33.451Z,22.28
2022-08-20T08:54:06.004Z,22.49
2022-08-20T08:56:34.767Z,22.54
2022-08-20T08:59:05.501Z,22.61
2022-08-20T09:01:55.064Z,22.57
2022-08-20T09:04:22.199Z,22.62
2022-08-20T09:06:53.406Z,22.83
2022-08-20T09:09:29.568Z,22.75
2022-08-20T09:12:02.370Z,22.68
2022-08-20T09:14:29.081Z,22.72
2022-08-20T09:16:55.557Z,22.80
2022-08-20T09:19:22.074Z,22.74
2022-08-20T09:21:49.159Z,22.76
2022-08-20T09:24:15.744Z,22.77
2022-08-20T09:26:42.280Z,22.67
2022-08-20T09:29:09.790Z,22.86
2022-08-20T09:31:37.359Z,22.88
2022-08-20T09:34:05.240Z,22.98
2022-08-20T09:36:32.896Z,23.00
2022-08-20T09:39:00.785Z,22.87
2022-08-20T09:41:29.710Z,22.94
2022-08-20T09:43:56.202Z,23.04
2022-08-20T09:46:27.172Z,22.99
2022-08-20T09:48:54.337Z,22.88
2022-08-20T09:51:21.355Z,22.96
2022-08-20T09:53:49.045Z,22.98
2022-08-20T09:56:16.761Z,23.05
2022-08-20T09:58:49.874Z,22.99
2022-08-20T10:01:18.851Z,22.95
2022-08-20T10:03:49.686Z,22.85
2022-08-20T10:06:17.785Z,22.87
2022-08-20T10:08:44.332Z,22.89
2022-08-20T10:11:10.972Z,22.86
2022-08-20T10:13:37.474Z,22.94
2022-08-20T10:16:05.014Z,22.96
2022-08-20T10:18:31.633Z,22.94
2022-08-20T10:20:58.166Z,22.94
2022-08-20T10:23:24.750Z,22.86
2022-08-20T10:25:51.319Z,22.76
2022-08-20T10:28:17.822Z,22.81
2022-08-20T10:30:45.225Z,22.94
2022-08-20T10:33:11.719Z,22.90
2022-08-20T10:35:38.314Z,23.04
2022-08-20T10:38:04.795Z,23.05
2022-08-20T10:40:31.367Z,23.08
2022-08-20T10:42:57.858Z,23.07
2022-08-20T10:45:25.787Z,23.03
2022-08-20T10:47:52.437Z,23.09
2022-08-20T10:50:20.078Z,23.11
2022-08-20T10:52:47.246Z,23.04
2022-08-20T10:55:14.108Z,22.99
2022-08-20T10:57:48.837Z,22.80
2022-08-20T11:00:17.891Z,22.83
2022-08-20T11:02:44.368Z,22.84
2022-08-20T11:05:10.978Z,22.98
2022-08-20T11:07:55.340Z,23.06
2022-08-20T11:10:25.327Z,23.08
2022-08-20T11:12:51.814Z,23.24
2022-08-20T11:15:18.342Z,23.41
2022-08-20T11:17:45.703Z,23.40
2022-08-20T11:20:15.000Z,23.25
2022-08-20T11:22:41.654Z,23.16
2022-08-20T11:25:08.510Z,23.12
2022-08-20T11:27:41.539Z,23.18
2022-08-20T11:30:11.719Z,23.22
2022-08-20T11:32:38.382Z,23.40
2022-08-20T11:35:24.441Z,23.51
2022-08-20T11:37:53.101Z,23.63
2022-08-20T11:40:19.864Z,23.73
2022-08-20T11:43:11.046Z,23.60
2022-08-20T11:45:37.362Z,23.58
2022-08-20T11:48:04.807Z,23.58
2022-08-20T11:50:31.367Z,23.62
2022-08-20T11:52:58.028Z,23.71
2022-08-20T11:55:29.509Z,23.70
2022-08-20T11:58:00.021Z,23.76
2022-08-20T12:00:33.526Z,23.65
2022-08-20T12:03:02.168Z,23.40
2022-08-20T12:05:29.954Z,23.24
2022-08-20T12:07:57.418Z,23.21
2022-08-20T12:10:26.324Z,23.29
2022-08-20T12:12:52.916Z,23.32
2022-08-20T12:15:19.991Z,23.48
2022-08-20T12:17:46.573Z,23.65
2022-08-20T12:20:15.287Z,23.96
2022-08-20T12:22:42.005Z,24.22
2022-08-20T12:25:09.234Z,24.15
2022-08-20T12:27:37.362Z,24.08
2022-08-20T12:30:13.506Z,24.09
2022-08-20T12:32:40.749Z,24.12
2022-08-20T12:35:08.719Z,23.96
2022-08-20T12:37:35.722Z,23.59
2022-08-20T12:40:05.820Z,23.38
2022-08-20T12:42:32.377Z,23.33
2022-08-20T12:45:00.012Z,23.31
2022-08-20T12:47:32.651Z,23.38
2022-08-20T12:50:02.154Z,23.68
2022-08-20T12:52:30.372Z,23.74
2022-08-20T12:54:58.292Z,23.82
2022-08-20T12:57:26.579Z,23.72
2022-08-20T12:59:53.050Z,23.68
2022-08-20T13:02:19.615Z,23.64
2022-08-20T13:04:46.150Z,23.67
2022-08-20T13:07:13.654Z,23.75
2022-08-20T13:09:41.109Z,23.76
2022-08-20T13:12:08.823Z,23.68
2022-08-20T13:14:36.345Z,23.71
2022-08-20T13:17:03.685Z,23.79
2022-08-20T13:19:34.850Z,23.83
2022-08-20T13:22:01.675Z,23.67
2022-08-20T13:24:28.685Z,23.68
2022-08-20T13:27:14.293Z,23.85
2022-08-20T13:29:57.770Z,23.73
2022-08-20T13:32:25.253Z,23.66
2022-08-20T13:34:51.800Z,23.68
2022-08-20T13:37:28.288Z,23.73
2022-08-20T13:39:56.437Z,23.89
2022-08-20T13:42:23.468Z,24.20
2022-08-20T13:44:50.346Z,24.29
2022-08-20T13:47:21.730Z,24.27
2022-08-20T13:49:53.907Z,24.22
2022-08-20T13:52:20.376Z,24.14
2022-08-20T13:54:47.986Z,24.06
2022-08-20T13:57:17.363Z,24.08
2022-08-20T13:59:46.228Z,24.04
2022-08-20T14:02:14.381Z,24.05
2022-08-20T14:04:40.963Z,24.11
2022-08-20T14:07:21.055Z,23.91
2022-08-20T14:09:54.077Z,23.72
2022-08-20T14:12:24.822Z,23.61
2022-08-20T14:14:52.997Z,23.77
2022-08-20T14:17:21.047Z,23.77
2022-08-20T14:19:49.711Z,23.66
2022-08-20T14:22:19.393Z,23.61
2022-08-20T14:24:49.010Z,23.46
2022-08-20T14:27:18.118Z,23.36
2022-08-20T14:29:46.739Z,23.38
2022-08-20T14:32:14.337Z,23.61
2022-08-20T14:34:41.136Z,23.51
2022-08-20T14:37:21.354Z,23.32
2022-08-20T14:39:52.813Z,23.15
2022-08-20T14:42:22.833Z,23.08
2022-08-20T14:44:52.953Z,23.25
2022-08-20T14:47:28.630Z,23.58
2022-08-20T14:49:57.767Z,23.66
2022-08-20T14:52:28.128Z,23.42
2022-08-20T14:54:55.129Z,23.10
2022-08-20T14:57:22.183Z,22.94
2022-08-20T14:59:51.790Z,22.98
2022-08-20T15:02:18.505Z,22.91
2022-08-20T15:04:48.822Z,22.87
2022-08-20T15:07:30.505Z,22.75
2022-08-20T15:09:58.222Z,22.72
2022-08-20T15:12:24.913Z,22.67
2022-08-20T15:14:51.443Z,22.71
2022-08-20T15:17:23.628Z,22.80
2022-08-20T15:19:50.622Z,22.96
2022-08-20T15:22:17.421Z,23.03
2022-08-20T15:24:44.255Z,23.12
2022-08-20T15:27:21.854Z,23.20
2022-08-20T15:29:50.006Z,23.32
2022-08-20T15:32:16.537Z,23.23
2022-08-20T15:34:43.390Z,23.18
2022-08-20T15:37:12.979Z,23.04
2022-08-20T15:39:41.607Z,22.89
2022-08-20T15:42:09.104Z,22.82
2022-08-20T15:44:36.949Z,22.89
2022-08-20T15:47:21.485Z,23.06
2022-08-20T15:49:50.511Z,23.16
2022-08-20T15:52:17.495Z,23.13
2022-08-20T15:54:45.487Z,22.86
2022-08-20T15:57:14.219Z,22.71
2022-08-20T16:00:09.907Z,22.63
2022-08-20T16:02:48.348Z,22.53
2022-08-20T16:05:33.087Z,22.58
2022-08-20T16:08:11.678Z,22.72
2022-08-20T16:11:15.375Z,22.77
2022-08-20T16:14:09.716Z,22.84
2022-08-20T16:17:01.870Z,22.86
2022-08-20T16:19:46.783Z,22.85
2022-08-20T16:22:17.291Z,22.84
2022-08-20T16:24:44.022Z,22.83
2022-08-20T16:27:13.629Z,22.86
2022-08-20T16:30:06.290Z,22.84
2022-08-20T16:32:35.876Z,22.77
2022-08-20T16:35:10.527Z,22.79
2022-08-20T16:37:59.621Z,22.80
2022-08-20T16:40:39.038Z,22.66
2022-08-20T16:43:07.527Z,22.56
2022-08-20T16:45:42.469Z,22.59
2022-08-20T16:48:12.469Z,22.59
2022-08-20T16:50:39.413Z,22.52
2022-08-20T16:53:13.483Z,22.48
2022-08-20T16:55:41.517Z,22.43
2022-08-20T16:58:08.009Z,22.42
2022-08-20T17:00:44.946Z,22.47
2022-08-20T17:03:31.360Z,22.47
2022-08-20T17:06:31.880Z,22.52
2022-08-20T17:08:59.105Z,22.45
2022-08-20T17:11:32.534Z,22.40
2022-08-20T17:14:03.767Z,22.37
2022-08-20T17:16:43.457Z,22.24
2022-08-20T17:19:17.085Z,22.10
2022-08-20T17:21:43.614Z,22.05
2022-08-20T17:24:19.947Z,22.04
2022-08-20T17:26:49.564Z,22.03
2022-08-20T17:29:34.820Z,22.01
2022-08-20T17:32:15.359Z,22.01
2022-08-20T17:34:55.222Z,21.91
2022-08-20T17:37:34.928Z,21.81
2022-08-20T17:40:19.491Z,21.66
2022-08-20T17:43:01.306Z,21.59
2022-08-20T17:45:37.490Z,21.55
2022-08-20T17:48:07.067Z,21.44
2022-08-20T17:50:37.126Z,21.38
2022-08-20T17:53:14.120Z,21.33
2022-08-20T17:55:40.993Z,21.24
2022-08-20T17:58:14.194Z,21.16
2022-08-20T18:00:41.866Z,21.13
2022-08-20T18:03:23.050Z,21.05
2022-08-20T18:05:58.026Z,21.00
2022-08-20T18:08:34.617Z,20.95
2022-08-20T18:11:19.809Z,20.89
2022-08-20T18:13:59.951Z,20.81
2022-08-20T18:16:51.272Z,20.76
2022-08-20T18:19:39.303Z,20.71
2022-08-20T18:22:18.624Z,20.67
2022-08-20T18:25:09.384Z,20.57
2022-08-20T18:27:44.311Z,20.49
2022-08-20T18:30:18.865Z,20.36
2022-08-20T18:32:48.076Z,20.23
2022-08-20T18:35:32.818Z,20.17
2022-08-20T18:38:21.320Z,20.14
2022-08-20T18:40:50.033Z,20.13
2022-08-20T18:43:30.489Z,20.07
2022-08-20T18:46:09.235Z,20.06
2022-08-20T18:48:35.782Z,20.08
2022-08-20T18:51:07.654Z,20.03
2022-08-20T18:53:35.008Z,20.01
2022-08-20T18:56:08.385Z,19.98
2022-08-20T18:58:54.547Z,19.95
2022-08-20T19:01:21.326Z,19.98
2022-08-20T19:03:51.896Z,20.03
2022-08-20T19:06:57.612Z,20.02
2022-08-20T19:09:54.648Z,19.95
2022-08-20T19:12:49.074Z,19.86
2022-08-20T19:15:18.865Z,19.66
2022-08-20T19:18:16.273Z,19.59
2022-08-20T19:20:56.217Z,19.51
2022-08-20T19:23:27.137Z,19.41
2022-08-20T19:26:00.445Z,19.29
2022-08-20T19:28:34.365Z,19.21
2022-08-20T19:31:11.132Z,19.14
2022-08-20T19:33:44.510Z,19.05
2022-08-20T19:36:18.684Z,18.97
2022-08-20T19:38:54.521Z,18.91
2022-08-20T19:41:31.188Z,18.90
2022-08-20T19:43:59.162Z,18.90
2022-08-20T19:46:31.729Z,18.84
2022-08-20T19:49:29.801Z,18.74
2022-08-20T19:52:21.229Z,18.70
2022-08-20T19:55:01.318Z,18.69
2022-08-20T19:57:30.119Z,18.66
2022-08-20T20:00:09.231Z,18.68
2022-08-20T20:02:36.540Z,18.65
2022-08-20T20:05:08.537Z,18.64
2022-08-20T20:07:41.723Z,18.65
2022-08-20T20:10:11.401Z,18.55
2022-08-20T20:12:38.974Z,18.43
2022-08-20T20:15:06.269Z,18.28
2022-08-20T20:17:36.000Z,18.06
2022-08-20T20:20:19.902Z,17.89
2022-08-20T20:22:56.933Z,17.83
2022-08-20T20:25:42.345Z,17.85
2022-08-20T20:28:14.076Z,17.71
2022-08-20T20:30:41.630Z,17.63
2022-08-20T20:33:18.376Z,17.62
2022-08-20T20:35:46.221Z,17.62
2022-08-20T20:38:27.725Z,17.58
2022-08-20T20:41:00.385Z,17.52
2022-08-20T20:43:32.709Z,17.46
2022-08-20T20:46:07.954Z,17.44
2022-08-20T20:48:50.356Z,17.35
2022-08-20T20:51:28.213Z,17.30
2022-08-20T20:53:58.926Z,17.21
2022-08-20T20:56:42.898Z,17.19
2022-08-20T20:59:10.534Z,17.18
2022-08-20T21:01:50.205Z,17.19
2022-08-20T21:04:22.499Z,17.13
2022-08-20T21:06:51.856Z,17.01
2022-08-20T21:09:18.758Z,16.96
2022-08-20T21:11:45.641Z,17.00
2022-08-20T21:14:12.178Z,17.02
2022-08-20T21:16:38.907Z,17.01
2022-08-20T21:19:07.273Z,16.95
2022-08-20T21:21:34.048Z,16.90
2022-08-20T21:24:00.531Z,16.82
2022-08-20T21:26:28.065Z,16.74
2022-08-20T21:28:54.965Z,16.67
2022-08-20T21:31:22.505Z,16.63
2022-08-20T21:33:48.988Z,16.55
2022-08-20T21:36:15.581Z,16.49
2022-08-20T21:38:42.055Z,16.44
2022-08-20T21:41:08.735Z,16.40
2022-08-20T21:43:35.362Z,16.41
2022-08-20T21:46:04.081Z,16.48
2022-08-20T21:48:31.691Z,16.57
2022-08-20T21:50:58.189Z,16.68
2022-08-20T21:53:24.707Z,16.71
2022-08-20T21:55:51.294Z,16.71
2022-08-20T21:58:19.142Z,16.62
2022-08-20T22:01:03.691Z,16.51
2022-08-20T22:03:38.669Z,16.45
2022-08-20T22:06:10.216Z,16.33
2022-08-20T22:08:36.680Z,16.22
2022-08-20T22:11:04.203Z,16.21
2022-08-20T22:13:33.073Z,16.19
2022-08-20T22:16:01.447Z,16.12
2022-08-20T22:18:28.089Z,16.10
2022-08-20T22:20:54.782Z,16.08
2022-08-20T22:23:21.890Z,16.06
2022-08-20T22:25:48.927Z,16.06
2022-08-20T22:28:16.501Z,16.00
2022-08-20T22:30:43.477Z,15.95
2022-08-20T22:33:14.915Z,15.99
2022-08-20T22:35:45.813Z,15.97
2022-08-20T22:38:12.957Z,15.94
2022-08-20T22:40:39.448Z,15.94
2022-08-20T22:43:06.048Z,15.93
2022-08-20T22:45:33.096Z,15.89
2022-08-20T22:48:00.713Z,15.91
2022-08-20T22:50:27.343Z,15.91
2022-08-20T22:52:54.406Z,15.90
2022-08-20T22:55:21.059Z,15.85
2022-08-20T22:57:47.507Z,15.85
2022-08-20T23:00:17.122Z,15.83
2022-08-20T23:02:52.736Z,15.86
2022-08-20T23:05:23.653Z,15.88
2022-08-20T23:07:53.984Z,15.78
2022-08-20T23:10:22.114Z,15.68
2022-08-20T23:12:48.768Z,15.58
2022-08-20T23:15:15.399Z,15.59
2022-08-20T23:17:41.995Z,15.55
2022-08-20T23:20:12.558Z,15.50
2022-08-20T23:22:39.135Z,15.51
2022-08-20T23:25:07.283Z,15.50
2022-08-20T23:27:41.290Z,15.47
2022-08-20T23:30:08.192Z,15.52
2022-08-20T23:32:34.693Z,15.45
2022-08-20T23:35:01.223Z,15.43
2022-08-20T23:37:27.788Z,15.41
2022-08-20T23:39:54.309Z,15.43
2022-08-20T23:42:20.898Z,15.42
2022-08-20T23:44:47.404Z,15.44
2022-08-20T23:47:19.571Z,15.42
2022-08-20T23:49:46.397Z,15.38
2022-08-20T23:52:13.075Z,15.38
2022-08-20T23:54:39.543Z,15.41
2022-08-20T23:57:08.154Z,15.34
2022-08-20T23:59:35.722Z,15.27
